createdAt,value
2023-05-15T00:00:31.932Z,6.17
2023-05-15T00:05:57.527Z,6.57
2023-05-15T00:11:05.589Z,6.78
2023-05-15T00:16:11.838Z,6.23
2023-05-15T00:21:40.520Z,6.63
2023-05-15T00:26:48.701Z,6.60
2023-05-15T00:31:56.340Z,7.20
2023-05-15T00:37:04.035Z,6.43
2023-05-15T00:42:13.876Z,6.80
2023-05-15T00:47:20.337Z,6.05
2023-05-15T00:52:28.376Z,6.30
2023-05-15T00:57:37.833Z,7.22
2023-05-15T01:02:43.377Z,7.63
2023-05-15T01:07:54.981Z,8.67
2023-05-15T01:13:04.674Z,9.13
2023-05-15T01:18:11.853Z,7.78
2023-05-15T01:23:23.916Z,10.00
2023-05-15T01:28:36.361Z,10.37
2023-05-15T01:33:46.781Z,9.35
2023-05-15T01:38:55.968Z,10.75
2023-05-15T01:44:09.844Z,11.20
2023-05-15T01:49:18.853Z,11.35
2023-05-15T01:54:25.845Z,10.23
2023-05-15T01:59:34.691Z,12.67
2023-05-15T02:04:41.465Z,12.32
2023-05-15T02:09:48.404Z,13.02
2023-05-15T02:15:15.186Z,13.67
2023-05-15T02:20:21.336Z,13.30
2023-05-15T02:25:37.415Z,11.18
2023-05-15T02:30:57.396Z,11.65
2023-05-15T02:36:09.774Z,11.27
2023-05-15T02:41:20.092Z,10.77
2023-05-15T02:46:28.927Z,11.20
2023-05-15T02:51:35.174Z,10.90
2023-05-15T02:56:40.626Z,11.63
2023-05-15T03:01:49.335Z,11.03
2023-05-15T03:06:54.969Z,10.73
2023-05-15T03:12:00.499Z,11.93
2023-05-15T03:17:08.746Z,11.30
2023-05-15T03:22:14.358Z,11.60
2023-05-15T03:27:19.898Z,12.45
2023-05-15T03:32:28.110Z,12.10
2023-05-15T03:37:33.631Z,11.63
2023-05-15T03:42:39.327Z,12.57
2023-05-15T03:47:48.670Z,13.13
2023-05-15T03:52:59.411Z,14.10
2023-05-15T03:58:05.837Z,13.73
2023-05-15T04:03:15.323Z,14.10
2023-05-15T04:08:21.261Z,15.40
2023-05-15T04:13:26.992Z,16.30
2023-05-15T04:18:34.999Z,19.80
2023-05-15T04:23:41.813Z,22.00
2023-05-15T04:29:00.139Z,22.70
2023-05-15T04:34:11.970Z,24.20
2023-05-15T04:39:17.439Z,25.13
2023-05-15T04:44:25.084Z,25.02
2023-05-15T04:49:33.074Z,24.67
2023-05-15T04:54:38.538Z,24.60
2023-05-15T04:59:44.160Z,23.98
2023-05-15T05:04:52.495Z,22.67
2023-05-15T05:09:57.900Z,23.03
2023-05-15T05:15:04.016Z,19.35
2023-05-15T05:20:13.669Z,19.60
2023-05-15T05:25:22.873Z,17.60
2023-05-15T05:30:28.345Z,15.30
2023-05-15T05:35:36.505Z,14.77
2023-05-15T05:40:41.948Z,12.97
2023-05-15T05:45:47.397Z,13.35
2023-05-15T05:50:55.771Z,12.73
2023-05-15T05:56:01.282Z,13.93
2023-05-15T06:01:07.163Z,13.93
2023-05-15T06:06:15.163Z,14.63
2023-05-15T06:11:23.236Z,15.10
2023-05-15T06:16:30.690Z,11.95
2023-05-15T06:21:39.047Z,14.55
2023-05-15T06:26:44.538Z,15.93
2023-05-15T06:31:50.245Z,14.35
2023-05-15T06:36:58.354Z,10.80
2023-05-15T06:42:03.880Z,13.87
2023-05-15T06:47:09.972Z,19.08
2023-05-15T06:52:19.610Z,15.68
2023-05-15T06:57:25.136Z,14.73
2023-05-15T07:02:30.627Z,15.48
2023-05-15T07:07:46.584Z,14.83
2023-05-15T07:12:52.027Z,15.63
2023-05-15T07:17:57.958Z,14.68
2023-05-15T07:23:07.344Z,14.20
2023-05-15T07:28:12.873Z,13.17
2023-05-15T07:33:18.521Z,13.23
2023-05-15T07:38:30.508Z,13.57
2023-05-15T07:43:36.044Z,12.07
2023-05-15T07:48:44.286Z,11.52
2023-05-15T07:53:52.571Z,11.70
2023-05-15T07:58:58.122Z,12.43
2023-05-15T08:04:03.819Z,12.02
2023-05-15T08:09:13.074Z,11.20
2023-05-15T08:14:18.693Z,10.83
2023-05-15T08:19:24.278Z,11.00
2023-05-15T08:24:33.393Z,11.77
2023-05-15T08:29:39.745Z,12.07
2023-05-15T08:34:45.485Z,11.00
2023-05-15T08:39:53.742Z,11.55
2023-05-15T08:44:59.362Z,11.98
2023-05-15T08:50:11.148Z,10.83
2023-05-15T08:55:20.135Z,11.13
2023-05-15T09:00:26.906Z,9.68
2023-05-15T09:05:33.636Z,9.37
2023-05-15T09:10:45.312Z,11.27
2023-05-15T09:15:51.823Z,10.38
2023-05-15T09:20:57.329Z,10.32
2023-05-15T09:26:05.850Z,10.50
2023-05-15T09:31:16.807Z,10.57
2023-05-15T09:36:30.037Z,9.70
2023-05-15T09:41:38.550Z,12.20
2023-05-15T09:46:44.119Z,9.85
2023-05-15T10:13:20.454Z,9.87
2023-05-15T10:18:27.906Z,9.85
2023-05-15T10:23:34.499Z,10.43
2023-05-15T10:28:44.770Z,10.00
2023-05-15T10:33:51.575Z,9.18
2023-05-15T10:38:57.190Z,10.27
2023-05-15T10:44:08.422Z,10.07
2023-05-15T10:49:29.308Z,9.60
2023-05-15T10:54:35.337Z,10.35
2023-05-15T10:59:44.370Z,11.68
2023-05-15T11:04:50.370Z,9.30
2023-05-15T11:09:56.787Z,9.65
2023-05-15T11:15:26.328Z,11.90
2023-05-15T11:20:42.159Z,10.07
2023-05-15T11:25:56.281Z,11.13
2023-05-15T11:31:09.873Z,11.40
2023-05-15T11:36:20.385Z,9.83
2023-05-15T11:41:30.325Z,11.00
2023-05-15T11:46:38.562Z,10.02
2023-05-15T11:51:45.955Z,9.90
2023-05-15T11:56:51.442Z,8.70
2023-05-15T12:01:59.475Z,9.60
2023-05-15T12:07:09.119Z,6.30
2023-05-15T12:12:16.856Z,7.80
2023-05-15T12:17:25.014Z,8.13
2023-05-15T12:22:38.283Z,8.80
2023-05-15T12:27:47.739Z,8.27
2023-05-15T12:32:59.881Z,9.07
2023-05-15T12:38:06.656Z,8.60
2023-05-15T12:43:13.263Z,8.23
2023-05-15T12:48:22.610Z,8.00
2023-05-15T12:53:28.113Z,7.13
2023-05-15T12:58:33.638Z,7.32
2023-05-15T13:03:41.744Z,9.97
2023-05-15T13:08:47.902Z,7.85
2023-05-15T13:13:53.494Z,8.55
2023-05-15T13:19:02.151Z,7.83
2023-05-15T13:24:10.106Z,7.97
2023-05-15T13:29:23.469Z,7.85
2023-05-15T13:34:32.599Z,7.03
2023-05-15T13:39:38.495Z,7.33
2023-05-15T13:44:44.149Z,9.85
2023-05-15T13:49:52.170Z,11.45
2023-05-15T13:54:58.465Z,10.90
2023-05-15T14:00:05.234Z,9.55
2023-05-15T14:05:15.610Z,12.05
2023-05-15T14:10:21.050Z,11.27
2023-05-15T14:15:26.552Z,12.30
2023-05-15T14:20:35.155Z,10.52
2023-05-15T14:25:40.543Z,10.63
2023-05-15T14:30:46.198Z,8.93
2023-05-15T14:35:54.545Z,9.43
2023-05-15T14:41:00.475Z,10.45
2023-05-15T14:46:06.115Z,11.60
2023-05-15T14:51:15.827Z,10.27
2023-05-15T14:56:22.467Z,10.15
2023-05-15T15:01:27.955Z,9.27
2023-05-15T15:06:35.991Z,9.67
2023-05-15T15:11:41.400Z,11.13
2023-05-15T15:16:47.055Z,10.45
2023-05-15T15:21:55.173Z,9.40
2023-05-15T15:27:00.634Z,9.65
2023-05-15T15:32:06.670Z,10.55
2023-05-15T15:37:15.013Z,11.73
2023-05-15T15:42:20.442Z,11.27
2023-05-15T15:47:26.471Z,11.43
2023-05-15T15:52:34.656Z,12.00
2023-05-15T15:57:40.295Z,13.32
2023-05-15T16:02:45.947Z,12.85
2023-05-15T16:07:54.398Z,13.03
2023-05-15T16:12:59.756Z,13.15
2023-05-15T16:18:05.423Z,12.77
2023-05-15T16:23:15.227Z,10.97
2023-05-15T16:28:20.685Z,9.87
2023-05-15T16:33:26.064Z,9.90
2023-05-15T16:38:34.065Z,8.73
2023-05-15T16:43:39.619Z,8.07
2023-05-15T16:48:45.004Z,9.77
2023-05-15T16:53:54.047Z,11.48
2023-05-15T16:58:59.524Z,10.77
2023-05-15T17:04:05.325Z,10.77
2023-05-15T17:09:14.352Z,11.52
2023-05-15T17:14:22.602Z,11.70
2023-05-15T17:19:30.835Z,13.97
2023-05-15T17:24:50.042Z,12.93
2023-05-15T17:29:56.704Z,9.38
2023-05-15T17:35:02.232Z,11.87
2023-05-15T17:40:11.313Z,9.50
2023-05-15T17:45:16.789Z,11.57
2023-05-15T17:50:22.170Z,9.13
2023-05-15T17:55:30.264Z,10.02
2023-05-15T18:00:35.695Z,8.77
2023-05-15T18:05:43.400Z,7.03
2023-05-15T18:10:51.948Z,7.80
2023-05-15T18:15:57.345Z,6.85
2023-05-15T18:21:02.842Z,6.60
2023-05-15T18:26:11.380Z,6.35
2023-05-15T18:31:17.295Z,6.90
2023-05-15T18:36:23.348Z,6.67
2023-05-15T18:41:31.765Z,6.60
2023-05-15T18:46:38.074Z,6.60
2023-05-15T18:51:44.090Z,5.97
2023-05-15T18:56:52.554Z,5.47
2023-05-15T19:01:58.460Z,6.00
2023-05-15T19:07:04.724Z,6.17
2023-05-15T19:12:12.972Z,5.47
2023-05-15T19:17:20.300Z,5.03
2023-05-15T19:22:26.080Z,4.27
2023-05-15T19:27:35.106Z,4.60
2023-05-15T19:32:41.568Z,3.65
2023-05-15T19:37:47.833Z,3.90
2023-05-15T19:42:56.251Z,3.47
2023-05-15T19:48:02.500Z,3.33
2023-05-15T19:53:08.216Z,3.17
2023-05-15T19:58:16.394Z,3.28
2023-05-15T20:03:21.998Z,3.35
2023-05-15T20:08:28.725Z,3.43
2023-05-15T20:13:37.691Z,3.22
2023-05-15T20:18:44.994Z,3.35
2023-05-15T20:23:51.524Z,3.13
2023-05-15T20:29:00.815Z,3.38
2023-05-15T20:34:10.129Z,3.25
2023-05-15T20:39:15.818Z,4.30
2023-05-15T20:44:24.158Z,3.60
2023-05-15T20:49:29.586Z,2.92
2023-05-15T20:54:35.116Z,3.00
2023-05-15T20:59:45.402Z,3.42
2023-05-15T21:04:51.317Z,3.70
2023-05-15T21:10:10.861Z,3.50
2023-05-15T21:15:19.019Z,3.47
2023-05-15T21:20:24.781Z,4.13
2023-05-15T21:25:30.337Z,4.23
2023-05-15T21:30:38.717Z,4.43
2023-05-15T21:35:44.671Z,4.03
2023-05-15T21:40:50.101Z,3.87
2023-05-15T21:46:00.045Z,4.05
2023-05-15T21:51:06.029Z,4.35
2023-05-15T21:56:11.547Z,4.10
2023-05-15T22:01:20.192Z,3.75
2023-05-15T22:06:25.880Z,3.70
2023-05-15T22:11:31.638Z,4.10
2023-05-15T22:16:39.713Z,3.17
2023-05-15T22:21:48.256Z,4.07
2023-05-15T22:26:53.704Z,3.87
2023-05-15T22:32:02.031Z,3.72
2023-05-15T22:37:07.977Z,3.30
2023-05-15T22:42:13.399Z,3.60
2023-05-15T22:47:21.795Z,2.97
2023-05-15T22:52:27.768Z,3.70
2023-05-15T22:57:33.549Z,2.50
2023-05-15T23:02:44.242Z,2.45
2023-05-15T23:07:50.534Z,2.80
2023-05-15T23:12:56.249Z,3.10
2023-05-15T23:18:04.977Z,2.65
2023-05-15T23:23:10.832Z,3.00
2023-05-15T23:28:16.308Z,2.90
2023-05-15T23:33:24.554Z,3.00
2023-05-15T23:38:30.528Z,2.90
2023-05-15T23:43:35.883Z,3.40
2023-05-15T23:48:44.262Z,3.45
2023-05-15T23:53:49.652Z,4.50
2023-05-15T23:58:55.086Z,5.13
